createdAt,value
2019-04-27T00:00:14.954Z,81.00
2019-04-27T00:01:50.552Z,81.00
2019-04-27T00:03:07.624Z,81.10
2019-04-27T00:04:33.938Z,81.10
2019-04-27T00:05:59.959Z,81.10
2019-04-27T00:07:33.690Z,81.00
2019-04-27T00:08:50.125Z,81.00
2019-04-27T00:10:03.476Z,81.10
2019-04-27T00:11:13.524Z,81.00
2019-04-27T00:12:22.870Z,81.00
2019-04-27T00:13:23.764Z,81.00
2019-04-27T00:14:28.012Z,81.00
2019-04-27T00:16:05.519Z,81.10
2019-04-27T00:17:47.307Z,80.80
2019-04-27T00:19:05.176Z,81.00
2019-04-27T00:20:46.511Z,80.90
2019-04-27T00:21:58.161Z,81.00
2019-04-27T00:23:06.287Z,80.90
2019-04-27T00:24:10.520Z,81.00
2019-04-27T00:25:14.799Z,81.10
2019-04-27T00:26:19.027Z,81.10
2019-04-27T00:27:23.477Z,81.00
2019-04-27T00:28:27.808Z,81.00
2019-04-27T00:29:33.162Z,81.00
2019-04-27T00:30:37.563Z,81.00
2019-04-27T00:31:43.448Z,80.90
2019-04-27T00:32:48.181Z,81.10
2019-04-27T00:33:53.562Z,81.20
2019-04-27T00:34:58.003Z,81.20
2019-04-27T00:36:07.860Z,81.30
2019-04-27T00:37:35.993Z,81.90
2019-04-27T00:39:01.431Z,81.20
2019-04-27T00:40:13.028Z,81.50
2019-04-27T00:41:19.170Z,81.40
2019-04-27T00:42:23.572Z,81.40
2019-04-27T00:43:27.823Z,81.50
2019-04-27T00:44:33.774Z,81.50
2019-04-27T00:45:38.131Z,81.50
2019-04-27T00:46:43.141Z,81.50
2019-04-27T00:47:56.376Z,81.40
2019-04-27T00:48:53.494Z,81.50
2019-04-27T00:49:57.844Z,81.40
2019-04-27T00:51:04.116Z,81.60
2019-04-27T00:52:08.003Z,81.40
2019-04-27T00:53:13.470Z,81.40
2019-04-27T00:54:17.793Z,81.50
2019-04-27T00:55:23.412Z,81.60
2019-04-27T00:56:49.473Z,81.60
2019-04-27T00:58:05.923Z,81.70
2019-04-27T00:59:38.256Z,82.30
2019-04-27T01:01:00.605Z,82.50
2019-04-27T01:02:29.647Z,82.00
2019-04-27T01:03:40.930Z,81.90
2019-04-27T01:04:45.176Z,82.00
2019-04-27T01:05:49.476Z,82.10
2019-04-27T01:06:53.959Z,82.10
2019-04-27T01:07:58.412Z,82.20
2019-04-27T01:09:03.534Z,82.30
2019-04-27T01:10:08.061Z,82.50
2019-04-27T01:11:13.987Z,82.40
2019-04-27T01:12:19.047Z,82.40
2019-04-27T01:13:23.279Z,82.60
2019-04-27T01:14:27.573Z,82.50
2019-04-27T01:15:33.832Z,82.50
2019-04-27T01:16:39.211Z,82.60
2019-04-27T01:17:43.630Z,82.60
2019-04-27T01:18:48.920Z,82.60
2019-04-27T01:19:53.300Z,82.70
2019-04-27T01:20:59.007Z,82.90
2019-04-27T01:22:03.308Z,82.80
2019-04-27T01:23:08.926Z,82.80
2019-04-27T01:24:13.496Z,82.90
2019-04-27T01:25:18.884Z,82.80
2019-04-27T01:26:40.985Z,82.90
2019-04-27T01:27:59.635Z,82.90
2019-04-27T01:29:07.399Z,82.80
2019-04-27T01:30:20.515Z,82.70
2019-04-27T01:31:24.754Z,82.80
2019-04-27T01:32:29.304Z,82.80
2019-04-27T01:33:33.639Z,82.80
2019-04-27T01:34:39.557Z,82.80
2019-04-27T01:35:43.933Z,82.90
2019-04-27T01:36:49.295Z,83.50
2019-04-27T01:37:53.607Z,82.80
2019-04-27T01:38:59.477Z,83.00
2019-04-27T01:40:03.982Z,82.90
2019-04-27T01:41:08.983Z,82.90
2019-04-27T01:42:13.262Z,82.90
2019-04-27T01:43:18.673Z,83.00
2019-04-27T01:44:23.075Z,83.00
2019-04-27T01:45:28.855Z,82.90
2019-04-27T01:46:33.387Z,82.90
2019-04-27T01:47:39.056Z,83.00
2019-04-27T01:48:43.540Z,83.10
2019-04-27T01:49:49.422Z,83.10
2019-04-27T01:50:53.956Z,83.10
2019-04-27T01:51:59.426Z,83.30
2019-04-27T01:53:03.881Z,83.20
2019-04-27T01:54:10.512Z,83.30
2019-04-27T01:55:14.843Z,83.20
2019-04-27T01:56:19.565Z,83.30
2019-04-27T01:57:23.868Z,83.40
2019-04-27T01:58:29.308Z,83.40
2019-04-27T01:59:33.651Z,83.60
2019-04-27T02:01:00.568Z,83.60
2019-04-27T02:02:23.932Z,83.70
2019-04-27T02:03:43.700Z,84.40
2019-04-27T02:05:05.761Z,83.80
2019-04-27T02:06:10.028Z,83.90
2019-04-27T02:07:14.261Z,84.10
2019-04-27T02:08:19.584Z,84.20
2019-04-27T02:09:24.040Z,84.30
2019-04-27T02:10:29.273Z,84.30
2019-04-27T02:11:33.660Z,84.40
2019-04-27T02:12:39.686Z,84.90
2019-04-27T02:13:43.767Z,84.50
2019-04-27T02:14:49.114Z,84.60
2019-04-27T02:15:53.498Z,84.60
2019-04-27T02:16:59.382Z,84.60
2019-04-27T02:18:03.665Z,84.70
2019-04-27T02:19:09.014Z,84.60
2019-04-27T02:20:13.816Z,85.60
2019-04-27T02:21:19.312Z,84.70
2019-04-27T02:22:23.999Z,84.90
2019-04-27T02:23:29.368Z,84.70
2019-04-27T02:24:33.774Z,84.90
2019-04-27T02:25:39.678Z,84.80
2019-04-27T02:26:43.990Z,85.00
2019-04-27T02:27:51.444Z,85.10
2019-04-27T02:29:20.875Z,84.90
2019-04-27T02:30:44.084Z,84.90
2019-04-27T02:32:13.271Z,85.00
2019-04-27T02:33:32.109Z,85.00
2019-04-27T02:34:43.962Z,85.00
2019-04-27T02:35:50.536Z,85.00
2019-04-27T02:36:54.117Z,85.10
2019-04-27T02:38:00.459Z,85.10
2019-04-27T02:39:05.387Z,85.10
2019-04-27T02:40:21.543Z,85.20
2019-04-27T02:41:25.809Z,85.10
2019-04-27T02:42:36.165Z,85.10
2019-04-27T02:44:04.740Z,85.10
2019-04-27T02:45:09.638Z,85.70
2019-04-27T02:46:14.055Z,85.00
2019-04-27T02:47:20.519Z,85.00
2019-04-27T02:48:24.172Z,85.00
2019-04-27T02:49:30.457Z,85.10
2019-04-27T02:50:34.405Z,85.60
2019-04-27T02:52:00.431Z,85.10
2019-04-27T02:53:04.685Z,85.00
2019-04-27T02:54:12.137Z,85.00
2019-04-27T02:55:14.920Z,85.10
2019-04-27T02:56:20.276Z,85.10
2019-04-27T02:57:24.593Z,85.10
2019-04-27T02:58:31.580Z,85.20
2019-04-27T02:59:34.811Z,85.30
2019-04-27T03:00:39.950Z,85.30
2019-04-27T03:01:53.462Z,85.30
2019-04-27T03:03:02.383Z,85.20
2019-04-27T03:04:06.401Z,85.20
2019-04-27T03:05:13.144Z,85.20
2019-04-27T03:06:16.566Z,85.20
2019-04-27T03:07:20.795Z,85.30
2019-04-27T03:08:25.016Z,85.40
2019-04-27T03:09:30.435Z,85.30
2019-04-27T03:10:34.900Z,85.30
2019-04-27T03:11:39.708Z,85.30
2019-04-27T03:12:49.981Z,85.20
2019-04-27T03:14:29.336Z,85.20
2019-04-27T03:15:54.885Z,85.30
2019-04-27T03:17:19.922Z,85.20
2019-04-27T03:18:33.062Z,85.10
2019-04-27T03:19:52.446Z,85.20
2019-04-27T03:21:05.431Z,85.00
2019-04-27T03:22:31.659Z,85.60
2019-04-27T03:23:35.903Z,84.90
2019-04-27T03:25:05.601Z,85.00
2019-04-27T03:26:19.547Z,85.00
2019-04-27T03:27:24.416Z,85.00
2019-04-27T03:28:29.851Z,85.10
2019-04-27T03:29:34.175Z,85.10
2019-04-27T03:30:42.265Z,85.00
2019-04-27T03:31:47.277Z,85.00
2019-04-27T03:32:56.116Z,85.00
2019-04-27T03:34:03.382Z,85.00
2019-04-27T03:35:03.726Z,85.00
2019-04-27T03:36:12.178Z,85.00
2019-04-27T03:37:14.165Z,85.00
2019-04-27T03:38:19.695Z,85.00
2019-04-27T03:39:24.067Z,85.00
2019-04-27T03:40:30.715Z,85.00
2019-04-27T03:41:34.212Z,85.10
2019-04-27T03:42:40.384Z,85.00
2019-04-27T03:43:44.861Z,85.00
2019-04-27T03:44:50.205Z,85.10
2019-04-27T03:45:55.266Z,85.70
2019-04-27T03:46:59.685Z,84.90
2019-04-27T03:48:03.999Z,84.80
2019-04-27T03:49:09.803Z,84.70
2019-04-27T03:50:20.422Z,84.70
2019-04-27T03:51:32.939Z,84.70
2019-04-27T03:52:59.988Z,84.60
2019-04-27T03:54:13.727Z,84.60
2019-04-27T03:55:21.119Z,84.60
2019-04-27T03:56:35.076Z,84.50
2019-04-27T03:58:01.006Z,84.50
2019-04-27T03:59:10.118Z,84.40
2019-04-27T04:00:19.890Z,84.60
2019-04-27T04:01:23.837Z,85.20
2019-04-27T04:02:30.255Z,84.40
2019-04-27T04:03:34.184Z,84.40
2019-04-27T04:04:40.519Z,84.50
2019-04-27T04:05:44.704Z,84.50
2019-04-27T04:06:49.526Z,84.50
2019-04-27T04:07:54.409Z,84.50
2019-04-27T04:09:00.192Z,84.50
2019-04-27T04:10:05.330Z,84.50
2019-04-27T04:11:19.682Z,84.40
2019-04-27T04:12:42.755Z,84.30
2019-04-27T04:13:54.013Z,84.50
2019-04-27T04:14:59.878Z,84.20
2019-04-27T04:16:10.997Z,84.30
2019-04-27T04:17:16.320Z,84.20
2019-04-27T04:18:20.968Z,84.60
2019-04-27T04:19:25.445Z,84.00
2019-04-27T04:20:30.490Z,84.00
2019-04-27T04:21:34.899Z,84.00
2019-04-27T04:22:40.340Z,84.10
2019-04-27T04:23:44.776Z,83.90
2019-04-27T04:24:50.649Z,84.60
2019-04-27T04:25:55.020Z,83.70
2019-04-27T04:26:59.961Z,84.50
2019-04-27T04:28:04.521Z,83.80
2019-04-27T04:29:10.276Z,83.70
2019-04-27T04:30:14.662Z,83.70
2019-04-27T04:31:20.977Z,83.60
2019-04-27T04:32:24.774Z,83.50
2019-04-27T04:33:30.417Z,83.70
2019-04-27T04:34:34.911Z,83.60
2019-04-27T04:35:39.908Z,83.70
2019-04-27T04:36:44.379Z,83.50
2019-04-27T04:37:49.619Z,83.40
2019-04-27T04:38:55.266Z,83.40
2019-04-27T04:39:59.877Z,83.50
2019-04-27T04:41:09.458Z,83.50
2019-04-27T04:42:35.568Z,83.20
2019-04-27T04:44:04.524Z,83.30
2019-04-27T04:45:20.296Z,83.90
2019-04-27T04:46:42.650Z,83.10
2019-04-27T04:47:51.219Z,83.20
2019-04-27T04:48:55.440Z,82.90
2019-04-27T04:50:08.594Z,83.00
2019-04-27T04:51:05.571Z,82.80
2019-04-27T04:52:09.851Z,82.90
2019-04-27T04:53:14.028Z,82.90
2019-04-27T04:54:19.773Z,82.70
2019-04-27T04:55:24.153Z,82.60
2019-04-27T04:56:29.212Z,82.60
2019-04-27T04:57:33.588Z,82.40
2019-04-27T04:58:39.729Z,82.60
2019-04-27T04:59:43.992Z,82.50
2019-04-27T05:00:50.183Z,82.50
2019-04-27T05:01:54.149Z,82.40
2019-04-27T05:02:59.490Z,82.40
2019-04-27T05:04:04.035Z,82.30
2019-04-27T05:05:09.383Z,83.00
2019-04-27T05:06:13.703Z,82.30
2019-04-27T05:07:19.407Z,82.40
2019-04-27T05:08:23.736Z,82.30
2019-04-27T05:09:29.561Z,82.00
2019-04-27T05:10:33.819Z,81.90
2019-04-27T05:11:39.559Z,81.40
2019-04-27T05:12:43.974Z,81.70
2019-04-27T05:13:49.432Z,81.40
2019-04-27T05:14:53.769Z,81.50
2019-04-27T05:15:58.879Z,81.30
2019-04-27T05:17:03.236Z,81.10
2019-04-27T05:18:09.153Z,81.10
2019-04-27T05:19:13.478Z,80.60
2019-04-27T05:20:33.076Z,80.60
2019-04-27T05:21:38.854Z,80.30
2019-04-27T05:22:43.219Z,80.10
2019-04-27T05:23:48.695Z,79.70
2019-04-27T05:25:02.392Z,79.30
2019-04-27T05:26:06.643Z,78.60
2019-04-27T05:27:10.882Z,77.80
2019-04-27T05:28:15.112Z,78.10
2019-04-27T05:29:19.330Z,76.60
2019-04-27T05:30:23.560Z,76.50
2019-04-27T05:31:29.245Z,75.80
2019-04-27T05:32:33.679Z,74.80
2019-04-27T05:33:38.890Z,74.50
2019-04-27T05:34:43.227Z,72.80
2019-04-27T05:35:49.200Z,70.80
2019-04-27T05:36:53.370Z,68.90
2019-04-27T05:38:02.502Z,65.60
2019-04-27T05:39:03.494Z,64.20
2019-04-27T05:40:09.157Z,60.50
2019-04-27T05:41:13.432Z,59.80
2019-04-27T05:42:19.973Z,58.00
2019-04-27T05:43:30.177Z,56.80
2019-04-27T05:45:00.115Z,56.40
2019-04-27T05:46:40.109Z,57.70
2019-04-27T05:47:51.836Z,57.40
2019-04-27T05:48:55.019Z,57.70
2019-04-27T05:50:03.209Z,58.70
2019-04-27T05:51:09.084Z,59.30
2019-04-27T05:52:29.751Z,60.30
2019-04-27T05:53:34.274Z,60.90
2019-04-27T05:54:38.658Z,61.30
2019-04-27T05:55:42.939Z,61.50
2019-04-27T05:56:49.100Z,61.20
2019-04-27T05:57:53.088Z,60.90
2019-04-27T05:58:57.457Z,61.40
2019-04-27T06:00:02.603Z,61.20
2019-04-27T06:01:07.067Z,61.00
2019-04-27T06:02:11.333Z,60.90
2019-04-27T06:03:15.554Z,59.70
2019-04-27T06:04:19.889Z,60.40
2019-04-27T06:05:24.121Z,60.90
2019-04-27T06:06:29.532Z,62.30
2019-04-27T06:07:34.106Z,64.10
2019-04-27T06:08:39.270Z,64.10
2019-04-27T06:09:43.751Z,63.90
2019-04-27T06:10:48.927Z,62.10
2019-04-27T06:11:53.201Z,61.40
2019-04-27T06:12:57.475Z,60.30
2019-04-27T06:14:01.708Z,59.70
2019-04-27T06:15:06.668Z,59.80
2019-04-27T06:16:10.909Z,59.20
2019-04-27T06:17:15.172Z,60.10
2019-04-27T06:18:20.737Z,59.50
2019-04-27T06:19:25.019Z,59.70
2019-04-27T06:20:29.246Z,59.30
2019-04-27T06:21:33.473Z,59.90
2019-04-27T06:22:39.031Z,59.60
2019-04-27T06:23:43.344Z,59.20
2019-04-27T06:24:52.300Z,59.20
2019-04-27T06:25:53.435Z,59.60
2019-04-27T06:26:59.515Z,59.20
2019-04-27T06:28:03.580Z,59.80
2019-04-27T06:29:09.458Z,59.80
2019-04-27T06:30:13.835Z,59.60
2019-04-27T06:31:19.610Z,60.00
2019-04-27T06:32:24.008Z,60.40
2019-04-27T06:33:34.106Z,60.40
2019-04-27T06:34:34.157Z,61.10
2019-04-27T06:35:39.951Z,61.10
2019-04-27T06:36:44.304Z,62.10
2019-04-27T06:37:49.274Z,63.00
2019-04-27T06:38:53.615Z,63.90
2019-04-27T06:39:59.582Z,64.70
2019-04-27T06:41:03.720Z,65.00
2019-04-27T06:42:16.721Z,65.10
2019-04-27T06:43:13.851Z,65.40
2019-04-27T06:44:19.637Z,66.20
2019-04-27T06:45:24.127Z,66.80
2019-04-27T06:46:28.869Z,66.60
2019-04-27T06:47:33.179Z,66.80
2019-04-27T06:48:37.451Z,67.20
2019-04-27T06:49:41.691Z,67.30
2019-04-27T06:50:45.902Z,66.80
2019-04-27T06:51:50.130Z,67.20
2019-04-27T06:52:54.347Z,66.90
2019-04-27T06:53:59.481Z,67.20
2019-04-27T06:55:06.240Z,67.00
2019-04-27T06:56:09.743Z,67.20
2019-04-27T06:57:14.076Z,67.10
2019-04-27T06:58:20.011Z,66.60
2019-04-27T06:59:24.203Z,66.20
2019-04-27T07:00:28.881Z,66.40
2019-04-27T07:01:33.250Z,66.30
2019-04-27T07:02:39.039Z,66.90
2019-04-27T07:03:43.311Z,67.60
2019-04-27T07:04:49.042Z,67.70
2019-04-27T07:05:53.388Z,67.90
2019-04-27T07:06:59.481Z,67.50
2019-04-27T07:08:03.499Z,67.80
2019-04-27T07:09:09.886Z,68.10
2019-04-27T07:10:14.154Z,68.30
2019-04-27T07:11:19.694Z,69.00
2019-04-27T07:12:24.120Z,69.00
2019-04-27T07:13:29.124Z,69.80
2019-04-27T07:14:33.499Z,69.10
2019-04-27T07:15:38.703Z,69.40
2019-04-27T07:16:43.155Z,70.60
2019-04-27T07:17:48.754Z,69.80
2019-04-27T07:18:53.068Z,69.50
2019-04-27T07:19:59.250Z,70.00
2019-04-27T07:21:15.969Z,70.00
2019-04-27T07:22:09.154Z,70.00
2019-04-27T07:23:14.941Z,69.50
2019-04-27T07:24:19.611Z,69.70
2019-04-27T07:25:24.054Z,70.00
2019-04-27T07:26:30.356Z,70.20
2019-04-27T07:27:34.460Z,70.20
2019-04-27T07:28:39.270Z,70.50
2019-04-27T07:29:44.859Z,70.40
2019-04-27T07:30:49.123Z,70.50
2019-04-27T07:31:53.379Z,71.00
2019-04-27T07:32:58.838Z,71.10
2019-04-27T07:34:03.486Z,71.40
2019-04-27T07:35:09.642Z,71.60
2019-04-27T07:36:13.663Z,72.00
2019-04-27T07:37:19.434Z,72.30
2019-04-27T07:38:23.919Z,71.50
2019-04-27T07:39:29.392Z,71.90
2019-04-27T07:40:33.804Z,71.80
2019-04-27T07:41:38.790Z,71.60
2019-04-27T07:42:45.906Z,71.80
2019-04-27T07:43:56.568Z,71.60
2019-04-27T07:45:07.364Z,71.20
2019-04-27T07:46:11.620Z,72.00
2019-04-27T07:47:19.475Z,71.80
2019-04-27T07:48:23.895Z,71.90
2019-04-27T07:49:29.085Z,72.40
2019-04-27T07:50:33.363Z,72.60
2019-04-27T07:51:39.205Z,72.80
2019-04-27T07:52:43.567Z,72.80
2019-04-27T07:53:48.920Z,73.70
2019-04-27T07:54:53.147Z,73.90
2019-04-27T07:55:59.143Z,73.40
2019-04-27T07:57:03.299Z,73.40
2019-04-27T07:58:08.923Z,74.10
2019-04-27T07:59:13.158Z,74.80
2019-04-27T08:00:19.089Z,74.70
2019-04-27T08:01:24.411Z,75.80
2019-04-27T08:02:29.102Z,76.00
2019-04-27T08:03:33.504Z,77.50
2019-04-27T08:04:37.758Z,77.90
2019-04-27T08:05:41.989Z,77.70
2019-04-27T08:06:46.267Z,79.60
2019-04-27T08:07:50.475Z,79.50
2019-04-27T08:08:54.706Z,78.60
2019-04-27T08:10:01.067Z,80.00
2019-04-27T08:11:04.858Z,80.00
2019-04-27T08:12:10.929Z,81.20
2019-04-27T08:13:15.284Z,81.40
2019-04-27T08:14:19.515Z,81.40
2019-04-27T08:15:23.758Z,81.00
2019-04-27T08:16:29.110Z,82.50
2019-04-27T08:17:33.434Z,81.60
2019-04-27T08:18:39.491Z,82.20
2019-04-27T08:19:43.539Z,82.50
2019-04-27T08:20:49.074Z,83.80
2019-04-27T08:21:53.520Z,83.60
2019-04-27T08:22:59.678Z,83.50
2019-04-27T08:24:03.654Z,83.80
2019-04-27T08:25:09.501Z,84.00
2019-04-27T08:26:22.023Z,83.90
2019-04-27T08:27:34.422Z,84.30
2019-04-27T08:28:58.675Z,84.30
2019-04-27T08:30:13.183Z,82.80
2019-04-27T08:31:21.703Z,83.90
2019-04-27T08:32:31.368Z,83.60
2019-04-27T08:33:35.588Z,84.00
2019-04-27T08:34:39.866Z,84.20
2019-04-27T08:35:44.044Z,84.10
2019-04-27T08:36:49.842Z,83.90
2019-04-27T08:37:54.227Z,84.40
2019-04-27T08:38:58.889Z,84.30
2019-04-27T08:40:03.318Z,84.20
2019-04-27T08:41:08.970Z,86.50
2019-04-27T08:42:13.326Z,85.10
2019-04-27T08:43:19.097Z,86.50
2019-04-27T08:44:23.478Z,86.00
2019-04-27T08:45:29.294Z,86.30
2019-04-27T08:46:33.628Z,86.40
2019-04-27T08:47:41.385Z,85.80
2019-04-27T08:48:43.807Z,85.70
2019-04-27T08:49:49.121Z,86.50
2019-04-27T08:50:53.575Z,86.00
2019-04-27T08:52:01.337Z,86.00
2019-04-27T08:53:03.716Z,85.90
2019-04-27T08:54:09.161Z,86.40
2019-04-27T08:55:13.663Z,85.60
2019-04-27T08:56:19.387Z,85.90
2019-04-27T08:57:23.659Z,85.80
2019-04-27T08:58:28.641Z,85.60
2019-04-27T08:59:33.256Z,86.10
2019-04-27T09:00:39.045Z,86.20
2019-04-27T09:01:43.372Z,85.50
2019-04-27T09:02:49.994Z,85.80
2019-04-27T09:03:53.591Z,86.10
2019-04-27T09:04:59.516Z,86.30
2019-04-27T09:06:09.039Z,85.80
2019-04-27T09:07:31.732Z,86.60
2019-04-27T09:08:49.602Z,85.10
2019-04-27T09:09:57.391Z,86.10
2019-04-27T09:11:13.519Z,85.70
2019-04-27T09:12:53.718Z,84.60
2019-04-27T09:14:16.740Z,85.40
2019-04-27T09:15:29.276Z,85.10
2019-04-27T09:16:59.498Z,85.40
2019-04-27T09:17:58.867Z,85.20
2019-04-27T09:19:08.813Z,86.00
2019-04-27T09:20:18.676Z,86.10
2019-04-27T09:21:22.966Z,86.20
2019-04-27T09:22:28.818Z,85.20
2019-04-27T09:23:33.194Z,86.90
2019-04-27T09:24:39.453Z,85.90
2019-04-27T09:25:43.311Z,85.60
2019-04-27T09:26:49.218Z,84.90
2019-04-27T09:27:53.484Z,84.80
2019-04-27T09:28:59.499Z,84.90
2019-04-27T09:30:04.301Z,85.80
2019-04-27T09:31:09.210Z,85.60
2019-04-27T09:32:13.820Z,85.60
2019-04-27T09:33:18.075Z,83.50
2019-04-27T09:34:22.515Z,84.10
2019-04-27T09:35:26.751Z,85.60
2019-04-27T09:36:30.976Z,85.10
2019-04-27T09:37:36.617Z,84.60
2019-04-27T09:38:40.952Z,83.80
2019-04-27T09:39:46.104Z,84.70
2019-04-27T09:40:50.853Z,84.90
2019-04-27T09:41:57.060Z,83.70
2019-04-27T09:43:01.067Z,83.60
2019-04-27T09:44:05.890Z,83.50
2019-04-27T09:45:10.206Z,82.90
2019-04-27T09:46:15.731Z,83.60
2019-04-27T09:47:20.244Z,83.90
2019-04-27T09:48:25.906Z,84.30
2019-04-27T09:49:30.330Z,83.00
2019-04-27T09:50:36.059Z,82.30
2019-04-27T09:51:40.507Z,82.60
2019-04-27T09:52:45.948Z,81.30
2019-04-27T09:53:50.337Z,81.40
2019-04-27T09:54:55.975Z,82.30
2019-04-27T09:56:00.255Z,81.80
2019-04-27T09:57:06.962Z,82.30
2019-04-27T09:58:11.200Z,81.40
2019-04-27T09:59:16.011Z,81.70
2019-04-27T10:00:21.694Z,82.60
2019-04-27T10:01:26.466Z,82.70
2019-04-27T10:02:31.823Z,84.00
2019-04-27T10:03:36.208Z,83.10
2019-04-27T10:04:40.559Z,82.80
2019-04-27T10:05:45.934Z,82.80
2019-04-27T10:06:50.205Z,83.40
2019-04-27T10:07:54.424Z,83.00
2019-04-27T10:08:58.646Z,83.90
2019-04-27T10:10:02.914Z,83.90
2019-04-27T10:11:07.152Z,83.60
2019-04-27T10:12:11.384Z,84.20
2019-04-27T10:13:15.965Z,84.50
2019-04-27T10:14:20.212Z,84.70
2019-04-27T10:15:24.468Z,84.70
2019-04-27T10:16:28.695Z,84.20
2019-04-27T10:17:33.142Z,84.90
2019-04-27T10:18:37.334Z,85.10
2019-04-27T10:19:41.595Z,84.20
2019-04-27T10:20:56.939Z,84.80
2019-04-27T10:21:51.724Z,85.00
2019-04-27T10:22:56.558Z,85.60
2019-04-27T10:24:00.880Z,85.40
2019-04-27T10:25:06.206Z,85.50
2019-04-27T10:26:10.464Z,85.70
2019-04-27T10:27:16.150Z,85.30
2019-04-27T10:28:20.548Z,86.20
2019-04-27T10:29:26.368Z,85.50
2019-04-27T10:30:31.483Z,86.30
2019-04-27T10:31:35.717Z,86.30
2019-04-27T10:32:42.706Z,84.90
2019-04-27T10:33:45.935Z,85.60
2019-04-27T10:34:50.161Z,86.90
2019-04-27T10:35:56.263Z,85.10
2019-04-27T10:37:00.307Z,85.00
2019-04-27T10:38:05.235Z,85.00
2019-04-27T10:39:13.282Z,85.70
2019-04-27T10:40:16.984Z,86.40
2019-04-27T10:41:21.259Z,86.00
2019-04-27T10:42:27.171Z,85.70
2019-04-27T10:43:31.503Z,85.70
2019-04-27T10:44:35.739Z,84.70
2019-04-27T10:45:39.995Z,84.50
2019-04-27T10:46:44.300Z,85.00
2019-04-27T10:47:49.596Z,85.00
2019-04-27T10:48:55.606Z,84.70
2019-04-27T10:49:59.895Z,83.70
2019-04-27T10:51:07.070Z,84.30
2019-04-27T10:52:10.071Z,84.30
2019-04-27T10:53:14.340Z,84.50
2019-04-27T10:54:18.631Z,83.90
2019-04-27T10:55:22.868Z,84.90
2019-04-27T10:56:27.340Z,83.70
2019-04-27T10:57:31.668Z,84.60
2019-04-27T10:58:35.899Z,85.00
2019-04-27T10:59:40.127Z,84.40
2019-04-27T11:00:49.304Z,83.10
2019-04-27T11:01:53.692Z,84.30
2019-04-27T11:02:58.366Z,84.20
2019-04-27T11:04:26.049Z,83.00
2019-04-27T11:05:39.723Z,83.10
2019-04-27T11:06:46.587Z,83.10
2019-04-27T11:07:50.939Z,83.50
2019-04-27T11:08:58.271Z,83.30
2019-04-27T11:10:02.623Z,84.00
2019-04-27T11:11:06.883Z,85.20
2019-04-27T11:12:11.127Z,86.20
2019-04-27T11:13:16.480Z,86.80
2019-04-27T11:14:20.819Z,87.00
2019-04-27T11:15:26.364Z,86.50
2019-04-27T11:16:30.724Z,87.10
2019-04-27T11:17:36.906Z,87.10
2019-04-27T11:18:42.135Z,87.80
2019-04-27T11:19:46.345Z,87.10
2019-04-27T11:20:50.566Z,85.90
2019-04-27T11:21:54.828Z,88.30
2019-04-27T11:23:07.078Z,85.90
2019-04-27T11:24:05.063Z,86.10
2019-04-27T11:25:09.329Z,84.30
2019-04-27T11:26:13.556Z,84.80
2019-04-27T11:27:17.863Z,83.70
2019-04-27T11:28:22.090Z,83.10
2019-04-27T11:29:27.633Z,83.50
2019-04-27T11:30:32.027Z,84.50
2019-04-27T11:31:36.442Z,84.30
2019-04-27T11:32:40.723Z,85.20
2019-04-27T11:33:46.374Z,85.20
2019-04-27T11:35:05.849Z,86.40
2019-04-27T11:36:32.936Z,85.40
2019-04-27T11:37:37.438Z,85.50
2019-04-27T11:38:41.636Z,85.80
2019-04-27T11:39:46.101Z,85.80
2019-04-27T11:40:50.348Z,85.50
2019-04-27T11:41:54.603Z,85.60
2019-04-27T11:42:58.907Z,85.40
2019-04-27T11:44:03.140Z,85.80
2019-04-27T11:45:10.244Z,85.40
2019-04-27T11:46:16.270Z,85.40
2019-04-27T11:47:20.399Z,84.10
2019-04-27T11:48:26.278Z,85.00
2019-04-27T11:49:30.641Z,84.70
2019-04-27T11:50:35.756Z,85.90
2019-04-27T11:51:40.108Z,83.50
2019-04-27T11:52:45.634Z,83.90
2019-04-27T11:53:49.979Z,83.10
2019-04-27T11:54:55.752Z,82.40
2019-04-27T11:56:00.148Z,81.60
2019-04-27T11:57:04.443Z,82.50
2019-04-27T11:58:08.689Z,83.50
2019-04-27T11:59:12.915Z,83.90
2019-04-27T12:00:18.853Z,83.90
2019-04-27T12:01:23.124Z,83.60
2019-04-27T12:02:27.392Z,83.80
2019-04-27T12:03:31.630Z,82.80
2019-04-27T12:04:36.411Z,82.60
2019-04-27T12:05:40.700Z,82.50
2019-04-27T12:06:46.265Z,81.80
2019-04-27T12:07:50.595Z,82.20
2019-04-27T12:08:54.816Z,82.30
2019-04-27T12:09:59.048Z,83.80
2019-04-27T12:11:03.266Z,84.90
2019-04-27T12:12:13.521Z,81.00
2019-04-27T12:13:13.443Z,82.20
2019-04-27T12:14:17.651Z,80.60
2019-04-27T12:15:23.302Z,80.40
2019-04-27T12:16:27.535Z,81.10
2019-04-27T12:17:32.536Z,80.40
2019-04-27T12:18:36.799Z,79.10
2019-04-27T12:19:41.024Z,80.10
2019-04-27T12:20:45.781Z,78.50
2019-04-27T12:21:50.112Z,78.70
2019-04-27T12:22:54.337Z,78.30
2019-04-27T12:23:58.708Z,77.80
2019-04-27T12:25:03.151Z,78.90
2019-04-27T12:26:08.940Z,78.20
2019-04-27T12:27:26.895Z,76.30
2019-04-27T12:28:46.522Z,77.40
2019-04-27T12:30:06.998Z,75.80
2019-04-27T12:31:30.183Z,74.30
2019-04-27T12:32:36.013Z,74.90
2019-04-27T12:33:40.397Z,75.90
2019-04-27T12:34:46.503Z,74.10
2019-04-27T12:35:50.511Z,73.70
2019-04-27T12:36:54.750Z,75.10
2019-04-27T12:37:59.005Z,75.90
2019-04-27T12:39:05.439Z,75.30
2019-04-27T12:40:09.845Z,76.20
2019-04-27T12:41:14.069Z,75.80
2019-04-27T12:42:20.990Z,73.90
2019-04-27T12:43:24.167Z,75.70
2019-04-27T12:44:28.422Z,74.40
2019-04-27T12:45:32.793Z,73.90
2019-04-27T12:46:37.015Z,74.10
2019-04-27T12:47:41.236Z,75.40
2019-04-27T12:48:45.975Z,74.50
2019-04-27T12:49:50.321Z,75.10
2019-04-27T12:50:55.867Z,75.10
2019-04-27T12:52:00.571Z,74.70
2019-04-27T12:53:07.299Z,73.90
2019-04-27T12:54:20.647Z,75.10
2019-04-27T12:55:42.626Z,75.60
2019-04-27T12:57:11.887Z,74.50
2019-04-27T12:58:36.553Z,74.80
2019-04-27T13:00:06.516Z,75.70
2019-04-27T13:01:13.318Z,75.70
2019-04-27T13:02:18.363Z,74.40
2019-04-27T13:03:22.615Z,76.00
2019-04-27T13:04:26.910Z,74.90
2019-04-27T13:05:31.148Z,75.40
2019-04-27T13:06:35.793Z,76.00
2019-04-27T13:07:40.348Z,72.90
2019-04-27T13:08:45.823Z,73.30
2019-04-27T13:09:50.220Z,73.90
2019-04-27T13:10:55.701Z,72.40
2019-04-27T13:12:00.307Z,73.20
2019-04-27T13:13:06.217Z,75.00
2019-04-27T13:14:10.402Z,72.50
2019-04-27T13:15:14.656Z,72.90
2019-04-27T13:16:18.887Z,73.90
2019-04-27T13:17:23.209Z,73.50
2019-04-27T13:18:27.336Z,73.90
2019-04-27T13:19:31.558Z,75.00
2019-04-27T13:20:35.991Z,74.90
2019-04-27T13:21:40.253Z,72.90
2019-04-27T13:22:45.925Z,72.80
2019-04-27T13:24:01.245Z,74.80
2019-04-27T13:24:56.604Z,71.80
2019-04-27T13:26:00.958Z,74.20
2019-04-27T13:27:06.423Z,74.90
2019-04-27T13:28:10.821Z,75.20
2019-04-27T13:29:16.646Z,74.30
2019-04-27T13:30:21.065Z,75.20
2019-04-27T13:31:25.744Z,76.40
2019-04-27T13:32:30.112Z,75.10
2019-04-27T13:33:34.330Z,75.20
2019-04-27T13:34:38.558Z,75.20
2019-04-27T13:35:42.828Z,75.90
2019-04-27T13:36:47.051Z,75.70
2019-04-27T13:37:52.813Z,74.90
2019-04-27T13:38:57.176Z,74.30
2019-04-27T13:40:07.001Z,75.20
2019-04-27T13:41:11.688Z,73.50
2019-04-27T13:42:15.918Z,73.60
2019-04-27T13:43:26.302Z,73.20
2019-04-27T13:44:30.564Z,73.80
2019-04-27T13:45:44.184Z,72.40
2019-04-27T13:47:27.269Z,72.40
2019-04-27T13:48:51.327Z,72.70
2019-04-27T13:50:01.933Z,71.50
2019-04-27T13:51:08.557Z,72.60
2019-04-27T13:52:16.207Z,72.40
2019-04-27T13:53:20.688Z,72.90
2019-04-27T13:54:27.202Z,70.40
2019-04-27T13:55:30.908Z,69.90
2019-04-27T13:56:35.178Z,68.90
2019-04-27T13:57:49.798Z,69.60
2019-04-27T13:58:45.546Z,68.60
2019-04-27T13:59:51.542Z,69.40
2019-04-27T14:00:55.669Z,70.00
2019-04-27T14:01:59.959Z,69.80
2019-04-27T14:03:04.595Z,70.30
2019-04-27T14:04:08.905Z,69.10
2019-04-27T14:05:13.143Z,67.90
2019-04-27T14:06:17.411Z,69.90
2019-04-27T14:07:21.657Z,68.50
2019-04-27T14:08:25.866Z,68.90
2019-04-27T14:09:30.693Z,68.50
2019-04-27T14:10:35.047Z,68.40
2019-04-27T14:11:39.442Z,68.90
2019-04-27T14:12:43.845Z,69.00
2019-04-27T14:13:49.531Z,69.10
2019-04-27T14:14:53.924Z,67.40
2019-04-27T14:15:58.147Z,68.20
2019-04-27T14:17:02.413Z,68.90
2019-04-27T14:18:08.426Z,69.60
2019-04-27T14:19:12.536Z,70.20
2019-04-27T14:20:18.267Z,69.70
2019-04-27T14:21:23.006Z,68.90
2019-04-27T14:22:28.208Z,69.20
2019-04-27T14:23:33.610Z,69.50